sensor_id;sensor_type;location;lat;lon;timestamp;temperature;humidity
19952;DHT22;10137;49.406;19.484;2023-03-01T00:01:10;-3.50;99.90
19952;DHT22;10137;49.406;19.484;2023-03-01T00:03:38;-3.50;99.90
19952;DHT22;10137;49.406;19.484;2023-03-01T00:06:06;-3.70;99.90
19952;DHT22;10137;49.406;19.484;2023-03-01T00:08:34;-3.70;99.90
19952;DHT22;10137;49.406;19.484;2023-03-01T00:11:03;-3.70;99.90
19952;DHT22;10137;49.406;19.484;2023-03-01T00:13:31;-3.70;99.90
19952;DHT22;10137;49.406;19.484;2023-03-01T00:15:58;-3.70;99.90
19952;DHT22;10137;49.406;19.484;2023-03-01T00:18:25;-3.70;99.90
19952;DHT22;10137;49.406;19.484;2023-03-01T00:20:55;-3.60;99.90
19952;DHT22;10137;49.406;19.484;2023-03-01T00:23:22;-3.70;99.90
19952;DHT22;10137;49.406;19.484;2023-03-01T00:25:53;-3.60;99.90
19952;DHT22;10137;49.406;19.484;2023-03-01T00:28:21;-3.60;99.90
19952;DHT22;10137;49.406;19.484;2023-03-01T00:30:48;-3.80;99.90
19952;DHT22;10137;49.406;19.484;2023-03-01T00:33:15;-4.00;99.90
19952;DHT22;10137;49.406;19.484;2023-03-01T00:35:42;-4.10;99.90
19952;DHT22;10137;49.406;19.484;2023-03-01T00:38:10;-4.10;99.90
19952;DHT22;10137;49.406;19.484;2023-03-01T00:40:37;-4.20;99.90
19952;DHT22;10137;49.406;19.484;2023-03-01T00:43:04;-4.40;99.90
19952;DHT22;10137;49.406;19.484;2023-03-01T00:45:32;-4.50;99.90
19952;DHT22;10137;49.406;19.484;2023-03-01T00:48:00;-4.50;99.90
19952;DHT22;10137;49.406;19.484;2023-03-01T00:50:27;-4.20;99.90
19952;DHT22;10137;49.406;19.484;2023-03-01T00:52:54;-4.40;99.90
19952;DHT22;10137;49.406;19.484;2023-03-01T00:55:24;-4.40;99.90
19952;DHT22;10137;49.406;19.484;2023-03-01T00:57:53;-4.50;99.90
19952;DHT22;10137;49.406;19.484;2023-03-01T01:00:20;-4.30;99.90
19952;DHT22;10137;49.406;19.484;2023-03-01T01:02:47;-4.20;99.90
19952;DHT22;10137;49.406;19.484;2023-03-01T01:05:14;-4.10;99.90
19952;DHT22;10137;49.406;19.484;2023-03-01T01:07:46;-3.90;99.90
19952;DHT22;10137;49.406;19.484;2023-03-01T01:10:14;-3.90;99.90
19952;DHT22;10137;49.406;19.484;2023-03-01T01:12:46;-4.00;99.90
19952;DHT22;10137;49.406;19.484;2023-03-01T01:15:13;-4.00;99.90
19952;DHT22;10137;49.406;19.484;2023-03-01T01:17:42;-4.00;99.90
19952;DHT22;10137;49.406;19.484;2023-03-01T01:20:12;-4.00;99.90
19952;DHT22;10137;49.406;19.484;2023-03-01T01:22:42;-4.00;99.90
19952;DHT22;10137;49.406;19.484;2023-03-01T01:25:09;-4.10;99.90
19952;DHT22;10137;49.406;19.484;2023-03-01T01:27:39;-4.10;99.90
19952;DHT22;10137;49.406;19.484;2023-03-01T01:30:08;-4.10;99.90
19952;DHT22;10137;49.406;19.484;2023-03-01T01:32:36;-4.10;99.90
19952;DHT22;10137;49.406;19.484;2023-03-01T01:35:05;-4.10;99.90
19952;DHT22;10137;49.406;19.484;2023-03-01T01:37:32;-4.20;99.90
19952;DHT22;10137;49.406;19.484;2023-03-01T01:40:00;-4.20;99.90
19952;DHT22;10137;49.406;19.484;2023-03-01T01:42:29;-4.40;99.90
19952;DHT22;10137;49.406;19.484;2023-03-01T01:45:24;-4.50;99.90
19952;DHT22;10137;49.406;19.484;2023-03-01T01:47:54;-4.70;99.90
19952;DHT22;10137;49.406;19.484;2023-03-01T01:50:22;-4.70;99.90
19952;DHT22;10137;49.406;19.484;2023-03-01T01:52:54;-4.70;99.90
19952;DHT22;10137;49.406;19.484;2023-03-01T01:55:25;-4.70;99.90
19952;DHT22;10137;49.406;19.484;2023-03-01T01:57:57;-4.50;99.90
19952;DHT22;10137;49.406;19.484;2023-03-01T02:00:29;-4.50;99.90
19952;DHT22;10137;49.406;19.484;2023-03-01T02:02:59;-4.40;99.90
19952;DHT22;10137;49.406;19.484;2023-03-01T02:05:35;-4.40;99.90
19952;DHT22;10137;49.406;19.484;2023-03-01T02:08:04;-4.30;99.90
19952;DHT22;10137;49.406;19.484;2023-03-01T02:10:33;-4.20;99.90
19952;DHT22;10137;49.406;19.484;2023-03-01T02:13:01;-4.30;99.90
19952;DHT22;10137;49.406;19.484;2023-03-01T02:15:33;-4.40;99.90
19952;DHT22;10137;49.406;19.484;2023-03-01T02:18:01;-4.40;99.90
19952;DHT22;10137;49.406;19.484;2023-03-01T02:20:34;-4.40;99.90
19952;DHT22;10137;49.406;19.484;2023-03-01T02:23:06;-4.40;99.90
19952;DHT22;10137;49.406;19.484;2023-03-01T02:25:39;-4.40;99.90
19952;DHT22;10137;49.406;19.484;2023-03-01T02:28:19;-4.40;99.90
19952;DHT22;10137;49.406;19.484;2023-03-01T02:30:50;-4.40;99.90
19952;DHT22;10137;49.406;19.484;2023-03-01T02:33:36;-4.70;99.90
19952;DHT22;10137;49.406;19.484;2023-03-01T02:36:06;-4.70;99.90
19952;DHT22;10137;49.406;19.484;2023-03-01T02:38:34;-4.80;99.90
19952;DHT22;10137;49.406;19.484;2023-03-01T02:41:07;-4.90;99.90
19952;DHT22;10137;49.406;19.484;2023-03-01T02:43:38;-4.80;99.90
19952;DHT22;10137;49.406;19.484;2023-03-01T02:46:07;-4.90;99.90
19952;DHT22;10137;49.406;19.484;2023-03-01T02:48:43;-5.00;99.90
19952;DHT22;10137;49.406;19.484;2023-03-01T02:51:18;-5.00;99.90
19952;DHT22;10137;49.406;19.484;2023-03-01T02:53:58;-5.10;99.90
19952;DHT22;10137;49.406;19.484;2023-03-01T02:56:28;-5.20;99.90
19952;DHT22;10137;49.406;19.484;2023-03-01T02:58:57;-5.30;99.90
19952;DHT22;10137;49.406;19.484;2023-03-01T03:01:27;-5.10;99.90
19952;DHT22;10137;49.406;19.484;2023-03-01T03:04:03;-5.00;99.90
19952;DHT22;10137;49.406;19.484;2023-03-01T03:06:32;-5.00;99.90
19952;DHT22;10137;49.406;19.484;2023-03-01T03:08:59;-5.20;99.90
19952;DHT22;10137;49.406;19.484;2023-03-01T03:11:26;-5.30;99.90
19952;DHT22;10137;49.406;19.484;2023-03-01T03:13:53;-5.10;99.90
19952;DHT22;10137;49.406;19.484;2023-03-01T03:16:21;-5.20;99.90
19952;DHT22;10137;49.406;19.484;2023-03-01T03:18:48;-5.20;99.90
19952;DHT22;10137;49.406;19.484;2023-03-01T03:21:16;-5.10;99.90
19952;DHT22;10137;49.406;19.484;2023-03-01T03:23:43;-5.00;99.90
19952;DHT22;10137;49.406;19.484;2023-03-01T03:26:10;-5.10;99.90
19952;DHT22;10137;49.406;19.484;2023-03-01T03:28:40;-5.10;99.90
19952;DHT22;10137;49.406;19.484;2023-03-01T03:31:08;-5.40;99.90
19952;DHT22;10137;49.406;19.484;2023-03-01T03:33:36;-5.50;99.90
19952;DHT22;10137;49.406;19.484;2023-03-01T03:36:06;-5.40;99.90
19952;DHT22;10137;49.406;19.484;2023-03-01T03:38:38;-5.60;99.90
19952;DHT22;10137;49.406;19.484;2023-03-01T03:41:07;-5.60;99.90
19952;DHT22;10137;49.406;19.484;2023-03-01T03:43:37;-5.60;99.90
19952;DHT22;10137;49.406;19.484;2023-03-01T03:46:04;-5.60;99.90
19952;DHT22;10137;49.406;19.484;2023-03-01T03:48:34;-5.60;99.90
19952;DHT22;10137;49.406;19.484;2023-03-01T03:51:02;-5.60;99.90
19952;DHT22;10137;49.406;19.484;2023-03-01T03:53:35;-5.50;99.90
19952;DHT22;10137;49.406;19.484;2023-03-01T03:56:02;-5.50;99.90
19952;DHT22;10137;49.406;19.484;2023-03-01T03:58:29;-5.40;99.90
19952;DHT22;10137;49.406;19.484;2023-03-01T04:00:57;-5.20;99.90
19952;DHT22;10137;49.406;19.484;2023-03-01T04:03:27;-5.20;99.90
19952;DHT22;10137;49.406;19.484;2023-03-01T04:05:57;-5.10;99.90
19952;DHT22;10137;49.406;19.484;2023-03-01T04:08:26;-5.10;99.90
19952;DHT22;10137;49.406;19.484;2023-03-01T04:10:57;-5.10;99.90
19952;DHT22;10137;49.406;19.484;2023-03-01T04:13:25;-5.20;99.90
19952;DHT22;10137;49.406;19.484;2023-03-01T04:15:52;-5.30;99.90
19952;DHT22;10137;49.406;19.484;2023-03-01T04:18:22;-5.30;99.90
19952;DHT22;10137;49.406;19.484;2023-03-01T04:20:49;-5.50;99.90
19952;DHT22;10137;49.406;19.484;2023-03-01T04:23:18;-5.60;99.90
19952;DHT22;10137;49.406;19.484;2023-03-01T04:25:49;-5.60;99.90
19952;DHT22;10137;49.406;19.484;2023-03-01T04:28:19;-5.60;99.90
19952;DHT22;10137;49.406;19.484;2023-03-01T04:30:49;-5.40;99.90
19952;DHT22;10137;49.406;19.484;2023-03-01T04:33:19;-5.40;99.90
19952;DHT22;10137;49.406;19.484;2023-03-01T04:35:47;-5.30;99.90
19952;DHT22;10137;49.406;19.484;2023-03-01T04:38:15;-5.30;99.90
19952;DHT22;10137;49.406;19.484;2023-03-01T04:40:43;-5.20;99.90
19952;DHT22;10137;49.406;19.484;2023-03-01T04:43:17;-5.20;99.90
19952;DHT22;10137;49.406;19.484;2023-03-01T04:45:44;-5.20;99.90
19952;DHT22;10137;49.406;19.484;2023-03-01T04:48:11;-5.20;99.90
19952;DHT22;10137;49.406;19.484;2023-03-01T04:50:38;-5.20;99.90
19952;DHT22;10137;49.406;19.484;2023-03-01T04:53:05;-5.20;99.90
19952;DHT22;10137;49.406;19.484;2023-03-01T04:55:33;-5.30;99.90
19952;DHT22;10137;49.406;19.484;2023-03-01T04:58:00;-5.60;99.90
19952;DHT22;10137;49.406;19.484;2023-03-01T05:00:29;-5.80;99.90
19952;DHT22;10137;49.406;19.484;2023-03-01T05:03:00;-5.90;99.90
19952;DHT22;10137;49.406;19.484;2023-03-01T05:05:31;-5.80;99.90
19952;DHT22;10137;49.406;19.484;2023-03-01T05:08:02;-5.80;99.90
19952;DHT22;10137;49.406;19.484;2023-03-01T05:10:32;-5.90;99.90
19952;DHT22;10137;49.406;19.484;2023-03-01T05:13:01;-6.00;99.90
19952;DHT22;10137;49.406;19.484;2023-03-01T05:15:31;-5.90;99.90
19952;DHT22;10137;49.406;19.484;2023-03-01T05:17:59;-5.80;99.90
19952;DHT22;10137;49.406;19.484;2023-03-01T05:20:27;-5.70;99.90
19952;DHT22;10137;49.406;19.484;2023-03-01T05:22:56;-5.60;99.90
19952;DHT22;10137;49.406;19.484;2023-03-01T05:25:24;-5.60;99.90
19952;DHT22;10137;49.406;19.484;2023-03-01T05:27:51;-5.60;99.90
19952;DHT22;10137;49.406;19.484;2023-03-01T05:30:21;-5.50;99.90
19952;DHT22;10137;49.406;19.484;2023-03-01T05:32:50;-5.70;99.90
19952;DHT22;10137;49.406;19.484;2023-03-01T05:35:21;-5.80;99.90
19952;DHT22;10137;49.406;19.484;2023-03-01T05:37:49;-5.90;99.90
19952;DHT22;10137;49.406;19.484;2023-03-01T05:40:19;-5.90;99.90
19952;DHT22;10137;49.406;19.484;2023-03-01T05:42:47;-6.00;99.90
19952;DHT22;10137;49.406;19.484;2023-03-01T05:45:16;-5.90;99.90
19952;DHT22;10137;49.406;19.484;2023-03-01T05:47:44;-5.90;99.90
19952;DHT22;10137;49.406;19.484;2023-03-01T05:50:15;-5.80;99.90
19952;DHT22;10137;49.406;19.484;2023-03-01T05:52:45;-5.70;99.90
19952;DHT22;10137;49.406;19.484;2023-03-01T05:55:12;-5.60;99.90
19952;DHT22;10137;49.406;19.484;2023-03-01T05:57:42;-5.40;99.90
19952;DHT22;10137;49.406;19.484;2023-03-01T06:00:12;-5.20;99.90
19952;DHT22;10137;49.406;19.484;2023-03-01T06:02:40;-5.10;99.90
19952;DHT22;10137;49.406;19.484;2023-03-01T06:05:08;-5.00;99.90
19952;DHT22;10137;49.406;19.484;2023-03-01T06:07:37;-4.80;99.90
19952;DHT22;10137;49.406;19.484;2023-03-01T06:10:05;-4.80;99.90
19952;DHT22;10137;49.406;19.484;2023-03-01T06:12:34;-4.80;99.90
19952;DHT22;10137;49.406;19.484;2023-03-01T06:15:01;-4.80;99.90
19952;DHT22;10137;49.406;19.484;2023-03-01T06:17:30;-4.80;99.90
19952;DHT22;10137;49.406;19.484;2023-03-01T06:19:59;-4.80;99.90
19952;DHT22;10137;49.406;19.484;2023-03-01T06:22:27;-4.80;99.90
19952;DHT22;10137;49.406;19.484;2023-03-01T06:24:58;-4.80;99.90
19952;DHT22;10137;49.406;19.484;2023-03-01T06:27:24;-4.80;99.90
19952;DHT22;10137;49.406;19.484;2023-03-01T06:29:51;-4.80;99.90
19952;DHT22;10137;49.406;19.484;2023-03-01T06:32:19;-4.80;99.90
19952;DHT22;10137;49.406;19.484;2023-03-01T06:34:46;-4.70;99.90
19952;DHT22;10137;49.406;19.484;2023-03-01T06:37:13;-4.60;99.90
19952;DHT22;10137;49.406;19.484;2023-03-01T06:39:40;-4.60;99.90
19952;DHT22;10137;49.406;19.484;2023-03-01T06:42:11;-4.50;99.90
19952;DHT22;10137;49.406;19.484;2023-03-01T06:44:38;-4.40;99.90
19952;DHT22;10137;49.406;19.484;2023-03-01T06:47:05;-4.10;99.90
19952;DHT22;10137;49.406;19.484;2023-03-01T06:49:32;-3.70;99.90
19952;DHT22;10137;49.406;19.484;2023-03-01T06:51:59;-3.40;99.90
19952;DHT22;10137;49.406;19.484;2023-03-01T06:54:27;-3.00;99.90
19952;DHT22;10137;49.406;19.484;2023-03-01T06:56:54;-2.70;99.90
19952;DHT22;10137;49.406;19.484;2023-03-01T06:59:22;-2.40;99.90
19952;DHT22;10137;49.406;19.484;2023-03-01T07:01:49;-2.20;99.90
19952;DHT22;10137;49.406;19.484;2023-03-01T07:04:19;-1.90;99.90
19952;DHT22;10137;49.406;19.484;2023-03-01T07:06:46;-1.70;99.90
19952;DHT22;10137;49.406;19.484;2023-03-01T07:09:19;-1.60;99.90
19952;DHT22;10137;49.406;19.484;2023-03-01T07:11:47;-1.40;99.90
19952;DHT22;10137;49.406;19.484;2023-03-01T07:14:15;-1.50;99.90
19952;DHT22;10137;49.406;19.484;2023-03-01T07:16:43;-1.60;99.90
19952;DHT22;10137;49.406;19.484;2023-03-01T07:19:11;-1.40;99.90
19952;DHT22;10137;49.406;19.484;2023-03-01T07:21:38;-1.40;99.90
19952;DHT22;10137;49.406;19.484;2023-03-01T07:24:07;-1.20;99.90
19952;DHT22;10137;49.406;19.484;2023-03-01T07:26:34;-1.10;99.90
19952;DHT22;10137;49.406;19.484;2023-03-01T07:29:02;-0.90;99.90
19952;DHT22;10137;49.406;19.484;2023-03-01T07:31:29;-0.90;99.90
19952;DHT22;10137;49.406;19.484;2023-03-01T07:34:01;-0.90;99.90
19952;DHT22;10137;49.406;19.484;2023-03-01T07:36:28;-0.80;99.90
19952;DHT22;10137;49.406;19.484;2023-03-01T07:38:55;-0.70;99.90
19952;DHT22;10137;49.406;19.484;2023-03-01T07:41:24;-0.60;99.90
19952;DHT22;10137;49.406;19.484;2023-03-01T07:43:51;-0.30;99.90
19952;DHT22;10137;49.406;19.484;2023-03-01T07:46:18;0.10;99.90
19952;DHT22;10137;49.406;19.484;2023-03-01T07:48:55;0.30;99.90
19952;DHT22;10137;49.406;19.484;2023-03-01T07:51:27;0.40;99.90
19952;DHT22;10137;49.406;19.484;2023-03-01T07:53:55;0.60;99.90
19952;DHT22;10137;49.406;19.484;2023-03-01T07:56:22;0.50;99.90
19952;DHT22;10137;49.406;19.484;2023-03-01T07:58:52;0.60;99.90
19952;DHT22;10137;49.406;19.484;2023-03-01T08:01:20;0.70;99.90
19952;DHT22;10137;49.406;19.484;2023-03-01T08:03:53;0.70;99.90
19952;DHT22;10137;49.406;19.484;2023-03-01T08:06:21;1.00;99.90
19952;DHT22;10137;49.406;19.484;2023-03-01T08:08:50;1.20;99.90
19952;DHT22;10137;49.406;19.484;2023-03-01T08:11:17;1.30;99.90
19952;DHT22;10137;49.406;19.484;2023-03-01T08:13:47;1.60;99.90
19952;DHT22;10137;49.406;19.484;2023-03-01T08:16:18;1.60;99.90
19952;DHT22;10137;49.406;19.484;2023-03-01T08:18:45;1.80;99.90
19952;DHT22;10137;49.406;19.484;2023-03-01T08:21:13;2.00;99.90
19952;DHT22;10137;49.406;19.484;2023-03-01T08:23:40;2.20;99.90
19952;DHT22;10137;49.406;19.484;2023-03-01T08:26:10;2.50;99.90
19952;DHT22;10137;49.406;19.484;2023-03-01T08:28:42;2.40;99.90
19952;DHT22;10137;49.406;19.484;2023-03-01T08:31:17;2.60;99.90
19952;DHT22;10137;49.406;19.484;2023-03-01T08:33:55;2.80;99.90
19952;DHT22;10137;49.406;19.484;2023-03-01T08:36:31;3.00;99.90
19952;DHT22;10137;49.406;19.484;2023-03-01T08:39:01;3.10;99.90
19952;DHT22;10137;49.406;19.484;2023-03-01T08:41:31;3.00;99.90
19952;DHT22;10137;49.406;19.484;2023-03-01T08:43:58;3.10;99.90
19952;DHT22;10137;49.406;19.484;2023-03-01T08:46:26;3.40;99.90
19952;DHT22;10137;49.406;19.484;2023-03-01T08:48:53;3.70;99.90
19952;DHT22;10137;49.406;19.484;2023-03-01T08:51:21;3.80;99.40
19952;DHT22;10137;49.406;19.484;2023-03-01T08:53:50;4.00;99.70
19952;DHT22;10137;49.406;19.484;2023-03-01T08:56:20;4.30;99.40
19952;DHT22;10137;49.406;19.484;2023-03-01T08:58:49;4.60;97.70
19952;DHT22;10137;49.406;19.484;2023-03-01T09:01:19;4.40;97.20
19952;DHT22;10137;49.406;19.484;2023-03-01T09:03:47;4.60;96.10
19952;DHT22;10137;49.406;19.484;2023-03-01T09:06:14;4.50;96.50
19952;DHT22;10137;49.406;19.484;2023-03-01T09:08:43;4.70;95.60
19952;DHT22;10137;49.406;19.484;2023-03-01T09:11:12;4.80;94.50
19952;DHT22;10137;49.406;19.484;2023-03-01T09:13:41;5.00;94.90
19952;DHT22;10137;49.406;19.484;2023-03-01T09:16:11;5.40;94.00
19952;DHT22;10137;49.406;19.484;2023-03-01T09:18:38;5.50;93.20
19952;DHT22;10137;49.406;19.484;2023-03-01T09:21:07;5.20;92.90
19952;DHT22;10137;49.406;19.484;2023-03-01T09:23:37;5.30;92.10
19952;DHT22;10137;49.406;19.484;2023-03-01T09:26:05;5.70;92.30
19952;DHT22;10137;49.406;19.484;2023-03-01T09:28:32;6.10;91.10
19952;DHT22;10137;49.406;19.484;2023-03-01T09:30:59;6.30;90.60
19952;DHT22;10137;49.406;19.484;2023-03-01T09:33:32;6.20;89.20
19952;DHT22;10137;49.406;19.484;2023-03-01T09:36:00;6.40;87.50
19952;DHT22;10137;49.406;19.484;2023-03-01T09:38:29;6.50;87.20
19952;DHT22;10137;49.406;19.484;2023-03-01T09:40:58;6.40;85.70
19952;DHT22;10137;49.406;19.484;2023-03-01T09:43:31;6.50;84.10
19952;DHT22;10137;49.406;19.484;2023-03-01T09:46:06;6.40;84.00
19952;DHT22;10137;49.406;19.484;2023-03-01T09:48:41;7.30;85.50
19952;DHT22;10137;49.406;19.484;2023-03-01T09:51:14;8.00;83.50
19952;DHT22;10137;49.406;19.484;2023-03-01T09:53:43;8.50;80.70
19952;DHT22;10137;49.406;19.484;2023-03-01T09:56:17;8.80;77.20
19952;DHT22;10137;49.406;19.484;2023-03-01T09:58:50;9.10;76.00
19952;DHT22;10137;49.406;19.484;2023-03-01T10:01:30;9.40;73.60
19952;DHT22;10137;49.406;19.484;2023-03-01T10:04:28;9.70;72.30
19952;DHT22;10137;49.406;19.484;2023-03-01T10:07:05;9.70;71.30
19952;DHT22;10137;49.406;19.484;2023-03-01T10:09:39;10.10;71.60
19952;DHT22;10137;49.406;19.484;2023-03-01T10:12:10;9.70;68.90
19952;DHT22;10137;49.406;19.484;2023-03-01T10:14:40;9.50;68.90
19952;DHT22;10137;49.406;19.484;2023-03-01T10:17:19;9.20;68.90
19952;DHT22;10137;49.406;19.484;2023-03-01T10:19:54;9.30;69.00
19952;DHT22;10137;49.406;19.484;2023-03-01T10:22:25;10.00;68.10
19952;DHT22;10137;49.406;19.484;2023-03-01T10:24:54;10.20;68.00
19952;DHT22;10137;49.406;19.484;2023-03-01T10:27:24;10.40;65.40
19952;DHT22;10137;49.406;19.484;2023-03-01T10:29:58;10.40;64.10
19952;DHT22;10137;49.406;19.484;2023-03-01T10:32:28;10.90;63.00
19952;DHT22;10137;49.406;19.484;2023-03-01T10:34:59;11.20;63.60
19952;DHT22;10137;49.406;19.484;2023-03-01T10:37:26;11.30;60.20
19952;DHT22;10137;49.406;19.484;2023-03-01T10:39:57;11.60;61.30
19952;DHT22;10137;49.406;19.484;2023-03-01T10:42:31;11.70;59.20
19952;DHT22;10137;49.406;19.484;2023-03-01T10:45:15;11.70;59.30
19952;DHT22;10137;49.406;19.484;2023-03-01T10:47:42;11.70;61.60
19952;DHT22;10137;49.406;19.484;2023-03-01T10:50:20;11.60;61.30
19952;DHT22;10137;49.406;19.484;2023-03-01T10:52:57;11.40;62.10
19952;DHT22;10137;49.406;19.484;2023-03-01T10:55:28;11.60;61.00
19952;DHT22;10137;49.406;19.484;2023-03-01T10:58:12;11.70;59.10
19952;DHT22;10137;49.406;19.484;2023-03-01T11:00:48;12.10;59.40
19952;DHT22;10137;49.406;19.484;2023-03-01T11:03:19;12.00;57.30
19952;DHT22;10137;49.406;19.484;2023-03-01T11:05:58;11.90;57.90
19952;DHT22;10137;49.406;19.484;2023-03-01T11:08:37;12.20;57.70
19952;DHT22;10137;49.406;19.484;2023-03-01T11:11:19;12.00;57.40
19952;DHT22;10137;49.406;19.484;2023-03-01T11:13:56;11.80;59.90
19952;DHT22;10137;49.406;19.484;2023-03-01T11:16:30;11.80;60.00
19952;DHT22;10137;49.406;19.484;2023-03-01T11:19:00;11.50;61.50
19952;DHT22;10137;49.406;19.484;2023-03-01T11:21:33;11.50;60.80
19952;DHT22;10137;49.406;19.484;2023-03-01T11:24:02;11.30;59.50
19952;DHT22;10137;49.406;19.484;2023-03-01T11:26:35;11.00;59.80
19952;DHT22;10137;49.406;19.484;2023-03-01T11:29:07;10.90;60.80
19952;DHT22;10137;49.406;19.484;2023-03-01T11:31:40;10.70;60.70
19952;DHT22;10137;49.406;19.484;2023-03-01T11:34:13;10.60;61.70
19952;DHT22;10137;49.406;19.484;2023-03-01T11:36:49;10.40;61.70
19952;DHT22;10137;49.406;19.484;2023-03-01T11:39:22;10.30;63.20
19952;DHT22;10137;49.406;19.484;2023-03-01T11:41:59;10.30;63.40
19952;DHT22;10137;49.406;19.484;2023-03-01T11:44:31;10.20;63.10
19952;DHT22;10137;49.406;19.484;2023-03-01T11:47:25;10.10;62.30
19952;DHT22;10137;49.406;19.484;2023-03-01T11:50:18;10.10;62.30
19952;DHT22;10137;49.406;19.484;2023-03-01T11:52:57;10.10;61.50
19952;DHT22;10137;49.406;19.484;2023-03-01T11:55:35;10.10;62.50
19952;DHT22;10137;49.406;19.484;2023-03-01T11:58:15;10.00;62.90
19952;DHT22;10137;49.406;19.484;2023-03-01T12:01:08;10.10;61.80
19952;DHT22;10137;49.406;19.484;2023-03-01T12:06:49;9.70;61.90
19952;DHT22;10137;49.406;19.484;2023-03-01T12:09:39;9.50;61.80
19952;DHT22;10137;49.406;19.484;2023-03-01T12:12:28;9.40;61.70
19952;DHT22;10137;49.406;19.484;2023-03-01T12:15:11;9.30;62.70
19952;DHT22;10137;49.406;19.484;2023-03-01T12:17:56;9.10;61.70
19952;DHT22;10137;49.406;19.484;2023-03-01T12:20:30;9.00;62.40
19952;DHT22;10137;49.406;19.484;2023-03-01T12:23:20;8.70;63.70
19952;DHT22;10137;49.406;19.484;2023-03-01T12:26:01;8.70;64.10
19952;DHT22;10137;49.406;19.484;2023-03-01T12:28:57;8.60;66.50
19952;DHT22;10137;49.406;19.484;2023-03-01T12:32:12;8.40;66.40
19952;DHT22;10137;49.406;19.484;2023-03-01T12:35:00;8.20;66.70
19952;DHT22;10137;49.406;19.484;2023-03-01T12:37:36;8.00;66.30
19952;DHT22;10137;49.406;19.484;2023-03-01T12:40:20;8.00;66.90
19952;DHT22;10137;49.406;19.484;2023-03-01T12:43:01;7.90;66.70
19952;DHT22;10137;49.406;19.484;2023-03-01T12:45:44;7.70;66.60
19952;DHT22;10137;49.406;19.484;2023-03-01T12:48:32;7.60;67.40
19952;DHT22;10137;49.406;19.484;2023-03-01T12:51:06;7.50;69.10
19952;DHT22;10137;49.406;19.484;2023-03-01T12:53:38;7.50;69.40
19952;DHT22;10137;49.406;19.484;2023-03-01T12:56:09;7.50;69.20
19952;DHT22;10137;49.406;19.484;2023-03-01T12:58:46;7.40;70.30
19952;DHT22;10137;49.406;19.484;2023-03-01T13:01:22;7.30;71.10
19952;DHT22;10137;49.406;19.484;2023-03-01T13:04:07;7.20;70.40
19952;DHT22;10137;49.406;19.484;2023-03-01T13:06:44;7.30;69.30
19952;DHT22;10137;49.406;19.484;2023-03-01T13:09:22;7.20;69.60
19952;DHT22;10137;49.406;19.484;2023-03-01T13:11:50;7.20;70.00
19952;DHT22;10137;49.406;19.484;2023-03-01T13:14:37;7.10;69.40
19952;DHT22;10137;49.406;19.484;2023-03-01T13:17:33;7.10;70.70
19952;DHT22;10137;49.406;19.484;2023-03-01T13:20:00;7.10;70.80
19952;DHT22;10137;49.406;19.484;2023-03-01T13:22:31;7.10;70.80
19952;DHT22;10137;49.406;19.484;2023-03-01T13:25:13;7.10;71.30
19952;DHT22;10137;49.406;19.484;2023-03-01T13:27:41;7.10;71.40
19952;DHT22;10137;49.406;19.484;2023-03-01T13:30:41;7.00;71.70
19952;DHT22;10137;49.406;19.484;2023-03-01T13:33:43;7.00;71.60
19952;DHT22;10137;49.406;19.484;2023-03-01T13:36:47;7.00;71.40
19952;DHT22;10137;49.406;19.484;2023-03-01T13:39:28;6.90;70.90
19952;DHT22;10137;49.406;19.484;2023-03-01T13:41:58;6.90;71.30
19952;DHT22;10137;49.406;19.484;2023-03-01T13:44:30;7.00;71.20
19952;DHT22;10137;49.406;19.484;2023-03-01T13:47:07;6.90;70.70
19952;DHT22;10137;49.406;19.484;2023-03-01T13:49:45;7.00;70.80
19952;DHT22;10137;49.406;19.484;2023-03-01T13:52:37;7.00;71.00
19952;DHT22;10137;49.406;19.484;2023-03-01T13:55:17;7.00;70.70
19952;DHT22;10137;49.406;19.484;2023-03-01T13:57:46;6.90;70.60
19952;DHT22;10137;49.406;19.484;2023-03-01T14:00:31;6.90;71.20
19952;DHT22;10137;49.406;19.484;2023-03-01T14:03:21;6.80;71.90
19952;DHT22;10137;49.406;19.484;2023-03-01T14:06:01;6.80;71.90
19952;DHT22;10137;49.406;19.484;2023-03-01T14:08:30;6.80;72.60
19952;DHT22;10137;49.406;19.484;2023-03-01T14:11:20;6.80;72.80
19952;DHT22;10137;49.406;19.484;2023-03-01T14:13:55;6.80;73.70
19952;DHT22;10137;49.406;19.484;2023-03-01T14:16:33;6.80;74.00
19952;DHT22;10137;49.406;19.484;2023-03-01T14:19:16;6.80;74.60
19952;DHT22;10137;49.406;19.484;2023-03-01T14:21:45;6.70;74.10
19952;DHT22;10137;49.406;19.484;2023-03-01T14:24:18;6.70;74.80
19952;DHT22;10137;49.406;19.484;2023-03-01T14:26:45;6.80;73.90
19952;DHT22;10137;49.406;19.484;2023-03-01T14:29:26;6.70;72.60
19952;DHT22;10137;49.406;19.484;2023-03-01T14:31:54;6.80;72.20
19952;DHT22;10137;49.406;19.484;2023-03-01T14:34:25;6.80;71.00
19952;DHT22;10137;49.406;19.484;2023-03-01T14:36:53;6.80;72.00
19952;DHT22;10137;49.406;19.484;2023-03-01T14:39:24;6.70;70.30
19952;DHT22;10137;49.406;19.484;2023-03-01T14:41:52;6.60;70.20
19952;DHT22;10137;49.406;19.484;2023-03-01T14:44:22;6.60;71.00
19952;DHT22;10137;49.406;19.484;2023-03-01T14:46:53;6.60;70.40
19952;DHT22;10137;49.406;19.484;2023-03-01T14:49:25;6.60;70.60
19952;DHT22;10137;49.406;19.484;2023-03-01T14:51:56;6.50;70.90
19952;DHT22;10137;49.406;19.484;2023-03-01T14:54:26;6.50;71.60
19952;DHT22;10137;49.406;19.484;2023-03-01T14:56:58;6.40;72.20
19952;DHT22;10137;49.406;19.484;2023-03-01T14:59:25;6.40;71.80
19952;DHT22;10137;49.406;19.484;2023-03-01T15:01:55;6.40;71.90
19952;DHT22;10137;49.406;19.484;2023-03-01T15:04:27;6.30;72.90
19952;DHT22;10137;49.406;19.484;2023-03-01T15:06:55;6.30;73.40
19952;DHT22;10137;49.406;19.484;2023-03-01T15:09:32;6.30;74.10
19952;DHT22;10137;49.406;19.484;2023-03-01T15:12:35;6.30;75.20
19952;DHT22;10137;49.406;19.484;2023-03-01T15:15:31;6.30;74.90
19952;DHT22;10137;49.406;19.484;2023-03-01T15:18:00;6.20;74.10
19952;DHT22;10137;49.406;19.484;2023-03-01T15:20:30;6.20;74.10
19952;DHT22;10137;49.406;19.484;2023-03-01T15:23:01;6.20;74.40
19952;DHT22;10137;49.406;19.484;2023-03-01T15:25:30;6.20;76.00
19952;DHT22;10137;49.406;19.484;2023-03-01T15:28:00;6.20;76.30
19952;DHT22;10137;49.406;19.484;2023-03-01T15:30:32;6.10;77.20
19952;DHT22;10137;49.406;19.484;2023-03-01T15:33:25;6.10;76.70
19952;DHT22;10137;49.406;19.484;2023-03-01T15:35:57;6.10;76.50
19952;DHT22;10137;49.406;19.484;2023-03-01T15:38:33;6.00;76.20
19952;DHT22;10137;49.406;19.484;2023-03-01T15:41:05;6.00;77.10
19952;DHT22;10137;49.406;19.484;2023-03-01T15:43:45;5.90;76.40
19952;DHT22;10137;49.406;19.484;2023-03-01T15:46:17;5.90;76.50
19952;DHT22;10137;49.406;19.484;2023-03-01T15:48:46;5.80;77.10
19952;DHT22;10137;49.406;19.484;2023-03-01T15:51:16;5.80;77.20
19952;DHT22;10137;49.406;19.484;2023-03-01T15:53:48;5.70;77.30
19952;DHT22;10137;49.406;19.484;2023-03-01T15:56:16;5.70;77.50